Flight Track Log - Related Links

Times and Time Zones

All times are in EDT time to prevent confusion due to time zone crossing. See the WIG7306 flight status page for this flight to view local times or setup timezone preferences in your user account.

Time Position Orientation Groundspeed Altitude Reporting Facility
EDT Latitude Longitude Course Direction KTS MPH feet Rate Location/Type
Tue 10:13:22 PM 42.7403 -73.8083 200° South 84 97 900  Level Boston Center
Tue 10:14:29 PM 42.7131 -73.8219 200° South 112 129 2,200 1,200 Climbing Boston Center
Tue 10:15:32 PM 42.6958 -73.8639 241° Southwest 118 136 3,500 1,240 Climbing Boston Center
Tue 10:16:30 PM 42.6683 -73.8858 210° Southwest 117 135 4,700 1,220 Climbing Boston Center
Tue 10:17:30 PM 42.6389 -73.9019 202° Southwest 117 135 5,900 1,190 Climbing Boston Center
Tue 10:18:31 PM 42.6094 -73.9239 209° Southwest 118 136 7,100 900 Climbing Boston Center
Tue 10:19:50 PM 42.5675 -73.9511 206° Southwest 121 139 8,000 383 Climbing Boston Center
Tue 10:20:52 PM 42.5256 -73.9783 206° Southwest 159 183 8,000  Level Boston Center
Tue 10:21:53 PM 42.4833 -74.0083 208° Southwest 171 197 8,000  Level Boston Center
Tue 10:22:50 PM 42.4411 -74.0408 210° Southwest 176 203 8,000  Level Boston Center
Tue 10:23:50 PM 42.4011 -74.0681 207° Southwest 176 203 8,000  Level Boston Center
Tue 10:24:51 PM 42.3592 -74.0950 205° Southwest 171 197 8,000  Level Boston Center
Tue 10:25:50 PM 42.3192 -74.1219 206° Southwest 171 197 8,000  Level Boston Center
Tue 10:26:51 PM 42.2750 -74.1433 200° South 171 197 8,000  Level Boston Center
Tue 10:27:52 PM 42.2353 -74.1619 199° South 171 197 8,000  Level Boston Center
Tue 10:28:50 PM 42.1931 -74.1831 200° South 171 197 8,000  Level Boston Center
Tue 10:29:52 PM 42.1511 -74.2072 203° Southwest 171 197 8,000  Level Boston Center
Tue 10:30:52 PM 42.1111 -74.2311 204° Southwest 166 191 8,000  Level Boston Center
Tue 10:31:51 PM 42.0692 -74.2494 198° South 166 191 8,000  Level Boston Center
Tue 10:32:50 PM 42.0272 -74.2708 201° Southwest 171 197 8,000  Level Boston Center
Tue 10:33:52 PM 41.9850 -74.2947 203° Southwest 171 197 8,000  Level Boston Center
Tue 10:34:50 PM 41.9431 -74.3158 201° Southwest 171 197 8,000  Level Boston Center
Tue 10:35:52 PM 41.9008 -74.3397 203° Southwest 171 197 8,000  Level Boston Center
Tue 10:36:50 PM 41.8589 -74.3578 198° South 171 197 8,000  Level Boston Center
Tue 10:37:52 PM 41.8147 -74.3817 202° Southwest 171 197 8,000  Level Boston Center
Tue 10:38:51 PM 41.7747 -74.4025 201° Southwest 171 197 8,000  Level Boston Center
Tue 10:39:50 PM 41.7347 -74.4236 201° Southwest 171 197 8,000  Level Boston Center
Tue 10:40:51 PM 41.6908 -74.4444 200° South 171 197 8,000  Level Boston Center
Tue 10:41:50 PM 41.6528 -74.4656 203° Southwest 171 197 8,000 -198 Level Boston Center
Tue 10:42:52 PM 41.6064 -74.4919 203° Southwest 171 197 7,600 -600 Descending Boston Center
Tue 10:43:50 PM 41.5644 -74.5128 200° South 176 203 6,800 -807 Descending Boston Center
Tue 10:44:51 PM 41.5139 -74.5414 203° Southwest 176 203 6,000 -264 Descending Boston Center
Tue 10:46:52 PM 41.4333 -74.5833 201° Southwest 158 182 6,000  Level New TRACON
Tue 10:47:52 PM 41.3833 -74.6000 194° South 159 183 6,000  Level New TRACON
Tue 10:48:52 PM 41.3500 -74.6167 201° Southwest 159 183 6,000 -300 Level New TRACON
Tue 10:49:52 PM 41.3000 -74.6167 180° South 170 196 5,400 -526 Descending New TRACON
Tue 10:50:46 PM 41.2500 -74.6167 180° South 172 198 5,000 -158 Descending New TRACON
Tue 10:51:46 PM 41.2000 -74.6167 180° South 156 180 5,100 -50 Climbing New TRACON
Tue 10:52:46 PM 41.1667 -74.6167 180° South 154 177 4,900 -450 Descending New TRACON
Tue 10:53:46 PM 41.1167 -74.6000 166° South 168 193 4,200 -450 Descending New TRACON
Tue 10:54:46 PM 41.0667 -74.6000 180° South 164 189 4,000 -53 Descending New TRACON
Tue 10:55:40 PM 41.0333 -74.5833 159° South 163 188 4,100 53 Climbing New TRACON
Tue 10:56:40 PM 41.0000 -74.5833 180° South 160 184 4,100  Level New TRACON
Tue 10:57:40 PM 40.9500 -74.5667 166° South 161 185 4,100 -500 Level New TRACON
Tue 10:58:40 PM 40.9000 -74.5500 166° South 178 205 3,100 -520 Descending New TRACON
Tue 10:59:47 PM 40.8500 -74.5333 166° South 158 182 3,000  Descending New TRACON
Tue 11:00:46 PM 40.8167 -74.5000 143° Southeast 154 177 3,100 50 Climbing New TRACON
Tue 11:01:46 PM 40.7833 -74.4667 143° Southeast 144 166 3,100  Level New TRACON
Tue 11:02:46 PM 40.7500 -74.4333 143° Southeast 143 165 3,100 -200 Level New TRACON
Tue 11:03:46 PM 40.7333 -74.4000 123° Southeast 149 171 2,700 -550 Descending New TRACON
Tue 11:04:46 PM 40.7000 -74.3500 131° Southeast 157 181 2,000 -286 Descending New TRACON
Tue 11:05:52 PM 40.6500 -74.3333 166° South 154 177 2,100 48 Climbing New TRACON
Tue 11:06:52 PM 40.6333 -74.3000 123° Southeast 146 168 2,100 -143 Level New TRACON
Tue 11:07:58 PM 40.6167 -74.2333 108° East 144 166 1,800 -476 Descending New TRACON
Tue 11:08:58 PM 40.6333 -74.2000 57° Northeast 139 160 1,100 -700 Descending New TRACON
Tue 11:09:58 PM 40.6667 -74.1833 21° North 120 138 400 -700 Descending New TRACON
Tue 11:11:00 PM 40.6833 -74.1667 105° East  Level FlightAware
Tue 11:18:00 PM 40.6925 -74.1687 105° East  Level Estimated

Login

Don't have an account? Register now (free) for customized features, flight alerts, and more!